Home > Products > Valid Products > TAF

000
FTPQ31 PGUM 020800 AAA
TAFPQ
TAF AMD
PGUM 020812Z 0208/0312 VRB05KT P6SM VCSH SCT018 SCT035 SCT120
      TEMPO 0209/0212 VRB12G20KT 3SM +SHRA SCT015 BKN030 OVC070=



000
FTPQ31 PGUM 020800 AAA
TAFPQ
TAF AMD
PGUM 020812Z 0208/0312 VRB05KT P6SM VCSH SCT018 SCT035 SCT120
      TEMPO 0209/0212 VRB12G20KT 3SM +SHRA SCT015 BKN030 OVC070=



000
FTPQ31 PGUM 020500
TAFPQ
TAF
PGUM 020523Z 0206/0312 23008KT P6SM VCSH SCT018 BKN040 BKN120
     FM020900 VRB05KT P6SM VCSH SCT018 SCT035 SCT120=



000
FTPQ31 PGUM 020500
TAFPQ
TAF
PGUM 020523Z 0206/0312 23008KT P6SM VCSH SCT018 BKN040 BKN120
     FM020900 VRB05KT P6SM VCSH SCT018 SCT035 SCT120=



000
FTPQ31 PGUM 012300
TAFPQ
TAF
PGUM 012324Z 0200/0306 23008KT P6SM VCSH SCT018 SCT035 SCT120=



000
FTPQ31 PGUM 012300
TAFPQ
TAF
PGUM 012324Z 0200/0306 23008KT P6SM VCSH SCT018 SCT035 SCT120=



000
FTPQ31 PGUM 011700
TAFPQ
TAF
PGUM 011720Z 0118/0224 VRB05KT P6SM VCSH FEW016 SCT040 BKN120
     FM020000 25010KT P6SM VCSH SCT016 BKN040 BKN120=



000
FTPQ31 PGUM 011100
TAFPQ
TAF
PGUM 011131Z 0112/0218 VRB05KT P6SM VCSH FEW016 SCT040 BKN120
     FM020000 25010KT P6SM VCSH SCT016 BKN040 BKN120=



000
FTPQ31 PGUM 010500
TAFPQ
TAF
PGUM 010534Z 0106/0212 26008KT P6SM VCSH FEW016 SCT040 BKN120=



000
FTPQ31 PGUM 010500
TAFPQ
TAF
PGUM 010534Z 0106/0212 26008KT P6SM VCSH FEW016 SCT040 BKN120=



000
FTPQ31 PGUM 010000 AAA
TAFPQ
TAF AMD
PGUM 010014Z 0100/0206 VRB05KT P6SM VCSH FEW016 SCT040 SCT120
      TEMPO 0100/0102 SCT014 BKN030
     FM010200 23007KT P6SM VCSH SCT016 SCT040 BKN120
      TEMPO 0102/0106 -SHRA SCT014CB OVC030=



000
FTPQ31 PGUM 010000 AAA
TAFPQ
TAF AMD
PGUM 010014Z 0100/0206 VRB05KT P6SM VCSH FEW016 SCT040 SCT120
      TEMPO 0100/0102 SCT014 BKN030
     FM010200 23007KT P6SM VCSH SCT016 SCT040 BKN120
      TEMPO 0102/0106 -SHRA SCT014CB OVC030=



000
FTPQ31 PGUM 312300
TAFPQ
TAF
PGUM 312320Z 0100/0206 VRB05KT P6SM VCSH FEW016 SCT040 SCT120
      TEMPO 0102/0106 -SHRA SCT014CB OVC030=



000
FTPQ31 PGUM 312300
TAFPQ
TAF
PGUM 312320Z 0100/0206 VRB05KT P6SM VCSH FEW016 SCT040 SCT120
      TEMPO 0102/0106 -SHRA SCT014CB OVC030=



000
FTPQ31 PGUM 311700
TAFPQ
TAF
PGUM 311720Z 3118/0124 VRB05KT P6SM VCSH FEW015 SCT040=



000
FTPQ31 PGUM 311700
TAFPQ
TAF
PGUM 311720Z 3118/0124 VRB05KT P6SM VCSH FEW015 SCT040=



000
FTPQ31 PGUM 311100
TAFPQ
TAF
PGUM 311120Z 3112/0118 VRB05KT P6SM VCSH FEW015 SCT040=



000
FTPQ31 PGUM 311100
TAFPQ
TAF
PGUM 311120Z 3112/0118 VRB05KT P6SM VCSH FEW015 SCT040=



000
FTPQ31 PGUM 310500
TAFPQ
TAF
PGUM 310520Z 3106/0112 22006KT P6SM VCSH FEW015 SCT040
      TEMPO 3106/3107 SCT010 BKN030=



000
FTPQ31 PGUM 310500
TAFPQ
TAF
PGUM 310520Z 3106/0112 22006KT P6SM VCSH FEW015 SCT040
      TEMPO 3106/3107 SCT010 BKN030=



000
FTPQ31 PGUM 302300
TAFPQ
TAF
PGUM 302320Z 3100/0106 18006KT P6SM VCSH FEW015 SCT040
      TEMPO 3101/3105 -SHRA SCT010 BKN030=



000
FTPQ31 PGUM 302300
TAFPQ
TAF
PGUM 302320Z 3100/0106 18006KT P6SM VCSH FEW015 SCT040
      TEMPO 3101/3105 -SHRA SCT010 BKN030=



000
FTPQ31 PGUM 301700
TAFPQ
TAF
PGUM 301726Z 3018/3124 08006KT P6SM VCSH SCT015 OVC200=



000
FTPQ31 PGUM 301700
TAFPQ
TAF
PGUM 301726Z 3018/3124 08006KT P6SM VCSH SCT015 OVC200=



000
FTPQ31 PGUM 301100
TAFPQ
TAF
PGUM 301121Z 3012/3118 08006KT P6SM VCSH SCT015 OVC200=



000
FTPQ31 PGUM 301100
TAFPQ
TAF
PGUM 301121Z 3012/3118 08006KT P6SM VCSH SCT015 OVC200=



    US Dept of Commerce
    National Oceanic and Atmospheric Administration
    National Weather Service
    1325 East West Highway
    Silver Spring, MD 20910
    Page Author: NWS Internet Services Team
Disclaimer
Information Quality
Credits
Glossary
Privacy Policy
Freedom of Information Act (FOIA)
About Us
Career Opportunities